sensor_id;sensor_type;location;lat;lon;timestamp;P1;durP1;ratioP1;P2;durP2;ratioP2
22425;SDS011;11380;50.822;15.790;2023-02-28T00:04:51;55.30;;;49.27;;
22425;SDS011;11380;50.822;15.790;2023-02-28T00:10:00;55.33;;;49.57;;
22425;SDS011;11380;50.822;15.790;2023-02-28T00:15:09;55.33;;;48.93;;
22425;SDS011;11380;50.822;15.790;2023-02-28T00:20:17;53.73;;;48.37;;
22425;SDS011;11380;50.822;15.790;2023-02-28T00:25:25;52.07;;;47.17;;
22425;SDS011;11380;50.822;15.790;2023-02-28T00:30:34;51.00;;;46.20;;
22425;SDS011;11380;50.822;15.790;2023-02-28T00:35:44;51.60;;;46.43;;
22425;SDS011;11380;50.822;15.790;2023-02-28T00:40:53;48.30;;;44.18;;
22425;SDS011;11380;50.822;15.790;2023-02-28T00:46:00;48.43;;;44.00;;
22425;SDS011;11380;50.822;15.790;2023-02-28T00:51:09;50.30;;;45.80;;
22425;SDS011;11380;50.822;15.790;2023-02-28T00:56:17;46.67;;;42.83;;
22425;SDS011;11380;50.822;15.790;2023-02-28T01:01:23;47.83;;;43.13;;
22425;SDS011;11380;50.822;15.790;2023-02-28T01:06:31;46.83;;;42.90;;
22425;SDS011;11380;50.822;15.790;2023-02-28T01:11:39;47.13;;;43.50;;
22425;SDS011;11380;50.822;15.790;2023-02-28T01:16:48;45.67;;;41.87;;
22425;SDS011;11380;50.822;15.790;2023-02-28T01:21:56;48.13;;;44.13;;
22425;SDS011;11380;50.822;15.790;2023-02-28T01:27:12;46.45;;;42.55;;
22425;SDS011;11380;50.822;15.790;2023-02-28T01:32:20;46.95;;;42.85;;
22425;SDS011;11380;50.822;15.790;2023-02-28T01:37:28;47.88;;;43.13;;
22425;SDS011;11380;50.822;15.790;2023-02-28T01:42:35;47.50;;;43.40;;
22425;SDS011;11380;50.822;15.790;2023-02-28T01:47:42;45.23;;;41.40;;
22425;SDS011;11380;50.822;15.790;2023-02-28T01:52:50;44.87;;;41.40;;
22425;SDS011;11380;50.822;15.790;2023-02-28T01:58:02;44.43;;;40.90;;
22425;SDS011;11380;50.822;15.790;2023-02-28T02:03:14;45.23;;;41.50;;
22425;SDS011;11380;50.822;15.790;2023-02-28T02:08:28;45.35;;;41.73;;
22425;SDS011;11380;50.822;15.790;2023-02-28T02:13:45;44.70;;;41.10;;
22425;SDS011;11380;50.822;15.790;2023-02-28T02:19:26;45.33;;;41.43;;
22425;SDS011;11380;50.822;15.790;2023-02-28T02:30:33;44.48;;;40.73;;
22425;SDS011;11380;50.822;15.790;2023-02-28T02:35:53;43.80;;;40.57;;
22425;SDS011;11380;50.822;15.790;2023-02-28T02:41:41;45.00;;;41.63;;
22425;SDS011;11380;50.822;15.790;2023-02-28T02:46:55;44.77;;;41.17;;
22425;SDS011;11380;50.822;15.790;2023-02-28T02:52:07;44.67;;;40.90;;
22425;SDS011;11380;50.822;15.790;2023-02-28T02:57:26;44.40;;;40.97;;
22425;SDS011;11380;50.822;15.790;2023-02-28T03:02:40;133.57;;;79.17;;
22425;SDS011;11380;50.822;15.790;2023-02-28T03:07:50;44.53;;;40.87;;
22425;SDS011;11380;50.822;15.790;2023-02-28T03:13:03;46.17;;;42.57;;
22425;SDS011;11380;50.822;15.790;2023-02-28T03:29:15;46.58;;;42.65;;
22425;SDS011;11380;50.822;15.790;2023-02-28T03:34:43;44.60;;;41.28;;
22425;SDS011;11380;50.822;15.790;2023-02-28T03:40:26;45.53;;;41.60;;
22425;SDS011;11380;50.822;15.790;2023-02-28T03:45:37;47.87;;;43.87;;
22425;SDS011;11380;50.822;15.790;2023-02-28T03:50:47;49.30;;;44.63;;
22425;SDS011;11380;50.822;15.790;2023-02-28T04:01:24;47.97;;;44.03;;
22425;SDS011;11380;50.822;15.790;2023-02-28T04:06:51;45.33;;;41.37;;
22425;SDS011;11380;50.822;15.790;2023-02-28T04:12:02;45.67;;;41.97;;
22425;SDS011;11380;50.822;15.790;2023-02-28T04:17:09;50.57;;;45.73;;
22425;SDS011;11380;50.822;15.790;2023-02-28T04:22:17;50.03;;;45.37;;
22425;SDS011;11380;50.822;15.790;2023-02-28T04:27:24;48.73;;;44.10;;
22425;SDS011;11380;50.822;15.790;2023-02-28T04:32:31;45.13;;;41.60;;
22425;SDS011;11380;50.822;15.790;2023-02-28T04:37:38;46.87;;;43.20;;
22425;SDS011;11380;50.822;15.790;2023-02-28T04:42:45;45.45;;;41.95;;
22425;SDS011;11380;50.822;15.790;2023-02-28T04:52:59;45.33;;;41.70;;
22425;SDS011;11380;50.822;15.790;2023-02-28T04:58:06;45.30;;;41.97;;
22425;SDS011;11380;50.822;15.790;2023-02-28T05:03:18;45.63;;;42.23;;
22425;SDS011;11380;50.822;15.790;2023-02-28T05:08:30;46.73;;;42.67;;
22425;SDS011;11380;50.822;15.790;2023-02-28T05:13:38;45.20;;;41.70;;
22425;SDS011;11380;50.822;15.790;2023-02-28T05:18:47;41.90;;;39.10;;
22425;SDS011;11380;50.822;15.790;2023-02-28T05:23:54;44.23;;;40.83;;
22425;SDS011;11380;50.822;15.790;2023-02-28T05:29:04;44.63;;;41.20;;
22425;SDS011;11380;50.822;15.790;2023-02-28T05:34:13;44.70;;;41.40;;
22425;SDS011;11380;50.822;15.790;2023-02-28T05:39:20;44.08;;;41.00;;
22425;SDS011;11380;50.822;15.790;2023-02-28T05:44:28;43.85;;;40.78;;
22425;SDS011;11380;50.822;15.790;2023-02-28T05:49:36;43.27;;;40.17;;
22425;SDS011;11380;50.822;15.790;2023-02-28T05:54:43;44.47;;;41.27;;
22425;SDS011;11380;50.822;15.790;2023-02-28T05:59:54;44.73;;;41.03;;
22425;SDS011;11380;50.822;15.790;2023-02-28T06:05:01;43.90;;;40.73;;
22425;SDS011;11380;50.822;15.790;2023-02-28T06:10:09;44.50;;;41.20;;
22425;SDS011;11380;50.822;15.790;2023-02-28T06:15:18;43.83;;;40.70;;
22425;SDS011;11380;50.822;15.790;2023-02-28T06:20:26;44.43;;;41.17;;
22425;SDS011;11380;50.822;15.790;2023-02-28T06:25:34;44.63;;;40.93;;
22425;SDS011;11380;50.822;15.790;2023-02-28T06:30:41;46.92;;;43.08;;
22425;SDS011;11380;50.822;15.790;2023-02-28T06:35:50;45.03;;;41.47;;
22425;SDS011;11380;50.822;15.790;2023-02-28T06:40:58;45.23;;;41.63;;
22425;SDS011;11380;50.822;15.790;2023-02-28T06:46:07;47.90;;;44.07;;
22425;SDS011;11380;50.822;15.790;2023-02-28T06:51:19;49.85;;;45.08;;
22425;SDS011;11380;50.822;15.790;2023-02-28T06:56:27;47.57;;;43.60;;
22425;SDS011;11380;50.822;15.790;2023-02-28T07:01:34;45.12;;;41.77;;
22425;SDS011;11380;50.822;15.790;2023-02-28T07:06:41;47.77;;;43.83;;
22425;SDS011;11380;50.822;15.790;2023-02-28T07:11:48;47.07;;;43.20;;
22425;SDS011;11380;50.822;15.790;2023-02-28T07:16:56;48.53;;;44.43;;
22425;SDS011;11380;50.822;15.790;2023-02-28T07:22:03;47.97;;;44.23;;
22425;SDS011;11380;50.822;15.790;2023-02-28T07:27:12;47.27;;;43.33;;
22425;SDS011;11380;50.822;15.790;2023-02-28T07:32:24;47.35;;;43.73;;
22425;SDS011;11380;50.822;15.790;2023-02-28T07:37:34;48.83;;;44.80;;
22425;SDS011;11380;50.822;15.790;2023-02-28T07:42:42;47.47;;;43.77;;
22425;SDS011;11380;50.822;15.790;2023-02-28T07:47:50;48.67;;;44.57;;
22425;SDS011;11380;50.822;15.790;2023-02-28T07:52:59;51.40;;;46.90;;
22425;SDS011;11380;50.822;15.790;2023-02-28T07:58:07;53.23;;;48.07;;
22425;SDS011;11380;50.822;15.790;2023-02-28T08:03:17;51.53;;;46.63;;
22425;SDS011;11380;50.822;15.790;2023-02-28T08:08:28;48.27;;;44.47;;
22425;SDS011;11380;50.822;15.790;2023-02-28T08:13:36;46.83;;;42.80;;
22425;SDS011;11380;50.822;15.790;2023-02-28T08:18:43;46.33;;;42.73;;
22425;SDS011;11380;50.822;15.790;2023-02-28T08:23:50;44.80;;;41.67;;
22425;SDS011;11380;50.822;15.790;2023-02-28T08:28:58;43.10;;;40.30;;
22425;SDS011;11380;50.822;15.790;2023-02-28T08:34:06;45.63;;;42.37;;
22425;SDS011;11380;50.822;15.790;2023-02-28T08:39:18;44.13;;;41.13;;
22425;SDS011;11380;50.822;15.790;2023-02-28T08:44:25;47.27;;;43.60;;
22425;SDS011;11380;50.822;15.790;2023-02-28T08:49:34;47.10;;;43.37;;
22425;SDS011;11380;50.822;15.790;2023-02-28T08:54:41;46.40;;;43.13;;
22425;SDS011;11380;50.822;15.790;2023-02-28T08:59:49;47.30;;;43.67;;
22425;SDS011;11380;50.822;15.790;2023-02-28T09:04:56;45.03;;;42.03;;
22425;SDS011;11380;50.822;15.790;2023-02-28T09:10:04;45.78;;;42.58;;
22425;SDS011;11380;50.822;15.790;2023-02-28T09:15:12;44.97;;;41.67;;
22425;SDS011;11380;50.822;15.790;2023-02-28T09:20:19;47.55;;;43.85;;
22425;SDS011;11380;50.822;15.790;2023-02-28T09:25:26;45.70;;;42.37;;
22425;SDS011;11380;50.822;15.790;2023-02-28T09:30:33;46.37;;;43.00;;
22425;SDS011;11380;50.822;15.790;2023-02-28T09:35:40;48.63;;;44.48;;
22425;SDS011;11380;50.822;15.790;2023-02-28T09:40:49;48.37;;;44.47;;
22425;SDS011;11380;50.822;15.790;2023-02-28T09:46:06;47.70;;;44.20;;
22425;SDS011;11380;50.822;15.790;2023-02-28T09:51:50;49.93;;;45.73;;
22425;SDS011;11380;50.822;15.790;2023-02-28T10:08:36;51.20;;;46.90;;
22425;SDS011;11380;50.822;15.790;2023-02-28T10:14:01;50.87;;;46.67;;
22425;SDS011;11380;50.822;15.790;2023-02-28T10:24:43;51.30;;;47.07;;
22425;SDS011;11380;50.822;15.790;2023-02-28T10:29:58;52.43;;;48.13;;
22425;SDS011;11380;50.822;15.790;2023-02-28T10:35:15;52.73;;;48.23;;
22425;SDS011;11380;50.822;15.790;2023-02-28T10:40:34;53.40;;;48.77;;
22425;SDS011;11380;50.822;15.790;2023-02-28T10:45:59;52.63;;;48.00;;
22425;SDS011;11380;50.822;15.790;2023-02-28T10:51:13;53.05;;;48.48;;
22425;SDS011;11380;50.822;15.790;2023-02-28T10:56:24;53.57;;;48.83;;
22425;SDS011;11380;50.822;15.790;2023-02-28T11:06:59;49.17;;;45.27;;
22425;SDS011;11380;50.822;15.790;2023-02-28T11:12:17;52.63;;;48.23;;
22425;SDS011;11380;50.822;15.790;2023-02-28T11:17:44;52.03;;;47.73;;
22425;SDS011;11380;50.822;15.790;2023-02-28T11:23:21;53.63;;;48.87;;
22425;SDS011;11380;50.822;15.790;2023-02-28T11:28:33;52.57;;;48.00;;
22425;SDS011;11380;50.822;15.790;2023-02-28T11:33:47;53.57;;;48.90;;
22425;SDS011;11380;50.822;15.790;2023-02-28T11:39:07;52.67;;;48.27;;
22425;SDS011;11380;50.822;15.790;2023-02-28T11:44:31;53.37;;;48.77;;
22425;SDS011;11380;50.822;15.790;2023-02-28T11:55:37;53.00;;;48.30;;
22425;SDS011;11380;50.822;15.790;2023-02-28T12:12:15;52.60;;;47.97;;
22425;SDS011;11380;50.822;15.790;2023-02-28T12:28:35;51.03;;;46.73;;
22425;SDS011;11380;50.822;15.790;2023-02-28T12:33:53;52.97;;;48.30;;
22425;SDS011;11380;50.822;15.790;2023-02-28T12:39:02;47.93;;;44.27;;
22425;SDS011;11380;50.822;15.790;2023-02-28T12:44:15;53.00;;;48.40;;
22425;SDS011;11380;50.822;15.790;2023-02-28T12:49:30;50.17;;;46.07;;
22425;SDS011;11380;50.822;15.790;2023-02-28T12:55:18;53.57;;;48.63;;
22425;SDS011;11380;50.822;15.790;2023-02-28T13:00:50;48.27;;;44.40;;
22425;SDS011;11380;50.822;15.790;2023-02-28T13:11:31;49.53;;;45.45;;
22425;SDS011;11380;50.822;15.790;2023-02-28T13:16:55;50.93;;;46.77;;
22425;SDS011;11380;50.822;15.790;2023-02-28T13:22:16;52.20;;;47.70;;
22425;SDS011;11380;50.822;15.790;2023-02-28T13:27:39;51.40;;;46.97;;
22425;SDS011;11380;50.822;15.790;2023-02-28T13:32:46;51.53;;;46.98;;
22425;SDS011;11380;50.822;15.790;2023-02-28T13:38:03;51.63;;;47.47;;
22425;SDS011;11380;50.822;15.790;2023-02-28T13:43:08;52.40;;;47.50;;
22425;SDS011;11380;50.822;15.790;2023-02-28T13:48:19;52.43;;;48.03;;
22425;SDS011;11380;50.822;15.790;2023-02-28T13:53:32;51.37;;;47.10;;
22425;SDS011;11380;50.822;15.790;2023-02-28T14:10:21;49.60;;;45.60;;
22425;SDS011;11380;50.822;15.790;2023-02-28T14:20:52;47.93;;;44.23;;
22425;SDS011;11380;50.822;15.790;2023-02-28T14:26:19;50.85;;;46.75;;
22425;SDS011;11380;50.822;15.790;2023-02-28T14:31:51;50.93;;;46.83;;
22425;SDS011;11380;50.822;15.790;2023-02-28T14:37:04;51.17;;;46.70;;
22425;SDS011;11380;50.822;15.790;2023-02-28T14:42:29;50.73;;;46.73;;
22425;SDS011;11380;50.822;15.790;2023-02-28T14:47:42;49.93;;;45.77;;
22425;SDS011;11380;50.822;15.790;2023-02-28T14:52:52;52.00;;;47.65;;
22425;SDS011;11380;50.822;15.790;2023-02-28T14:58:00;49.83;;;45.73;;
22425;SDS011;11380;50.822;15.790;2023-02-28T15:03:18;83.40;;;49.03;;
22425;SDS011;11380;50.822;15.790;2023-02-28T15:08:32;51.97;;;47.50;;
22425;SDS011;11380;50.822;15.790;2023-02-28T15:13:52;50.93;;;46.73;;
22425;SDS011;11380;50.822;15.790;2023-02-28T15:18:56;51.60;;;47.37;;
22425;SDS011;11380;50.822;15.790;2023-02-28T15:24:18;52.37;;;47.70;;
22425;SDS011;11380;50.822;15.790;2023-02-28T15:29:46;51.00;;;46.70;;
22425;SDS011;11380;50.822;15.790;2023-02-28T15:34:56;51.10;;;46.83;;
22425;SDS011;11380;50.822;15.790;2023-02-28T15:40:12;53.53;;;48.50;;
22425;SDS011;11380;50.822;15.790;2023-02-28T15:45:46;52.23;;;47.83;;
22425;SDS011;11380;50.822;15.790;2023-02-28T15:51:02;51.73;;;47.33;;
22425;SDS011;11380;50.822;15.790;2023-02-28T16:07:37;58.37;;;52.07;;
22425;SDS011;11380;50.822;15.790;2023-02-28T16:12:47;57.47;;;51.87;;
22425;SDS011;11380;50.822;15.790;2023-02-28T16:17:55;54.00;;;49.27;;
22425;SDS011;11380;50.822;15.790;2023-02-28T16:23:03;55.33;;;50.37;;
22425;SDS011;11380;50.822;15.790;2023-02-28T16:28:19;53.76;;;48.78;;
22425;SDS011;11380;50.822;15.790;2023-02-28T16:33:40;56.37;;;50.93;;
22425;SDS011;11380;50.822;15.790;2023-02-28T16:38:49;53.97;;;48.77;;
22425;SDS011;11380;50.822;15.790;2023-02-28T16:43:56;54.87;;;48.60;;
22425;SDS011;11380;50.822;15.790;2023-02-28T16:49:05;53.50;;;48.63;;
22425;SDS011;11380;50.822;15.790;2023-02-28T16:54:19;55.10;;;49.57;;
22425;SDS011;11380;50.822;15.790;2023-02-28T17:04:33;81.70;;;59.27;;
22425;SDS011;11380;50.822;15.790;2023-02-28T17:09:40;61.93;;;55.17;;
22425;SDS011;11380;50.822;15.790;2023-02-28T17:14:50;59.00;;;51.83;;
22425;SDS011;11380;50.822;15.790;2023-02-28T17:19:57;55.43;;;50.00;;
22425;SDS011;11380;50.822;15.790;2023-02-28T17:25:05;55.73;;;50.10;;
22425;SDS011;11380;50.822;15.790;2023-02-28T17:30:14;53.80;;;48.67;;
22425;SDS011;11380;50.822;15.790;2023-02-28T17:35:26;53.60;;;48.60;;
22425;SDS011;11380;50.822;15.790;2023-02-28T17:40:34;54.70;;;49.30;;
22425;SDS011;11380;50.822;15.790;2023-02-28T17:45:43;54.70;;;49.13;;
22425;SDS011;11380;50.822;15.790;2023-02-28T17:50:53;52.03;;;47.07;;
22425;SDS011;11380;50.822;15.790;2023-02-28T17:56:00;51.97;;;47.10;;
22425;SDS011;11380;50.822;15.790;2023-02-28T18:01:08;48.70;;;44.27;;
22425;SDS011;11380;50.822;15.790;2023-02-28T18:06:22;50.80;;;45.48;;
22425;SDS011;11380;50.822;15.790;2023-02-28T18:11:32;51.70;;;46.93;;
22425;SDS011;11380;50.822;15.790;2023-02-28T18:16:43;49.20;;;44.80;;
22425;SDS011;11380;50.822;15.790;2023-02-28T18:21:51;50.83;;;46.37;;
22425;SDS011;11380;50.822;15.790;2023-02-28T18:27:01;52.03;;;46.70;;
22425;SDS011;11380;50.822;15.790;2023-02-28T18:32:10;52.77;;;47.83;;
22425;SDS011;11380;50.822;15.790;2023-02-28T18:37:17;56.28;;;50.33;;
22425;SDS011;11380;50.822;15.790;2023-02-28T18:42:25;77.58;;;59.85;;
22425;SDS011;11380;50.822;15.790;2023-02-28T18:47:33;58.20;;;51.97;;
22425;SDS011;11380;50.822;15.790;2023-02-28T18:52:41;79.80;;;58.30;;
22425;SDS011;11380;50.822;15.790;2023-02-28T18:57:48;59.17;;;52.80;;
22425;SDS011;11380;50.822;15.790;2023-02-28T19:02:56;57.97;;;51.90;;
22425;SDS011;11380;50.822;15.790;2023-02-28T19:08:03;64.70;;;52.80;;
22425;SDS011;11380;50.822;15.790;2023-02-28T19:13:11;64.83;;;53.57;;
22425;SDS011;11380;50.822;15.790;2023-02-28T19:18:19;55.93;;;50.07;;
22425;SDS011;11380;50.822;15.790;2023-02-28T19:23:26;56.23;;;50.03;;
22425;SDS011;11380;50.822;15.790;2023-02-28T19:28:35;53.47;;;48.43;;
22425;SDS011;11380;50.822;15.790;2023-02-28T19:33:43;53.10;;;48.10;;
22425;SDS011;11380;50.822;15.790;2023-02-28T19:38:51;53.10;;;48.20;;
22425;SDS011;11380;50.822;15.790;2023-02-28T19:43:59;55.03;;;49.43;;
22425;SDS011;11380;50.822;15.790;2023-02-28T19:49:08;52.97;;;48.17;;
22425;SDS011;11380;50.822;15.790;2023-02-28T19:54:16;51.97;;;46.87;;
22425;SDS011;11380;50.822;15.790;2023-02-28T19:59:26;49.73;;;45.27;;
22425;SDS011;11380;50.822;15.790;2023-02-28T20:04:38;49.10;;;44.80;;
22425;SDS011;11380;50.822;15.790;2023-02-28T20:09:45;48.83;;;44.60;;
22425;SDS011;11380;50.822;15.790;2023-02-28T20:14:54;49.57;;;45.13;;
22425;SDS011;11380;50.822;15.790;2023-02-28T20:20:07;52.88;;;47.88;;
22425;SDS011;11380;50.822;15.790;2023-02-28T20:25:16;60.00;;;52.57;;
22425;SDS011;11380;50.822;15.790;2023-02-28T20:30:25;73.47;;;57.78;;
22425;SDS011;11380;50.822;15.790;2023-02-28T20:35:33;66.60;;;55.27;;
22425;SDS011;11380;50.822;15.790;2023-02-28T20:40:43;58.23;;;52.17;;
22425;SDS011;11380;50.822;15.790;2023-02-28T20:45:54;75.23;;;54.37;;
22425;SDS011;11380;50.822;15.790;2023-02-28T20:51:05;61.97;;;52.73;;
22425;SDS011;11380;50.822;15.790;2023-02-28T20:56:18;65.75;;;54.25;;
22425;SDS011;11380;50.822;15.790;2023-02-28T21:01:29;66.37;;;51.95;;
22425;SDS011;11380;50.822;15.790;2023-02-28T21:06:40;62.40;;;51.50;;
22425;SDS011;11380;50.822;15.790;2023-02-28T21:11:51;56.13;;;50.43;;
22425;SDS011;11380;50.822;15.790;2023-02-28T21:17:01;60.20;;;53.63;;
22425;SDS011;11380;50.822;15.790;2023-02-28T21:22:10;77.07;;;54.77;;
22425;SDS011;11380;50.822;15.790;2023-02-28T21:27:17;61.33;;;50.47;;
22425;SDS011;11380;50.822;15.790;2023-02-28T21:32:25;61.37;;;48.00;;
22425;SDS011;11380;50.822;15.790;2023-02-28T21:37:35;59.40;;;51.67;;
22425;SDS011;11380;50.822;15.790;2023-02-28T21:42:43;56.07;;;50.10;;
22425;SDS011;11380;50.822;15.790;2023-02-28T21:47:51;71.23;;;52.60;;
22425;SDS011;11380;50.822;15.790;2023-02-28T21:52:58;60.80;;;51.47;;
22425;SDS011;11380;50.822;15.790;2023-02-28T21:58:06;53.90;;;48.13;;
22425;SDS011;11380;50.822;15.790;2023-02-28T22:03:13;54.07;;;48.27;;
22425;SDS011;11380;50.822;15.790;2023-02-28T22:08:21;52.05;;;46.55;;
22425;SDS011;11380;50.822;15.790;2023-02-28T22:13:28;54.20;;;45.43;;
22425;SDS011;11380;50.822;15.790;2023-02-28T22:18:36;58.67;;;47.63;;
22425;SDS011;11380;50.822;15.790;2023-02-28T22:23:45;51.00;;;45.90;;
22425;SDS011;11380;50.822;15.790;2023-02-28T22:28:53;47.08;;;42.03;;
22425;SDS011;11380;50.822;15.790;2023-02-28T22:34:02;43.07;;;39.73;;
22425;SDS011;11380;50.822;15.790;2023-02-28T22:39:13;42.63;;;39.20;;
22425;SDS011;11380;50.822;15.790;2023-02-28T22:44:21;44.23;;;40.55;;
22425;SDS011;11380;50.822;15.790;2023-02-28T22:49:28;45.67;;;41.80;;
22425;SDS011;11380;50.822;15.790;2023-02-28T22:54:39;47.93;;;43.17;;
22425;SDS011;11380;50.822;15.790;2023-02-28T22:59:47;50.87;;;45.97;;
22425;SDS011;11380;50.822;15.790;2023-02-28T23:04:54;60.80;;;49.47;;
22425;SDS011;11380;50.822;15.790;2023-02-28T23:10:05;59.87;;;47.27;;
22425;SDS011;11380;50.822;15.790;2023-02-28T23:15:19;48.13;;;42.97;;
22425;SDS011;11380;50.822;15.790;2023-02-28T23:20:28;45.80;;;41.35;;
22425;SDS011;11380;50.822;15.790;2023-02-28T23:25:39;50.30;;;44.97;;
22425;SDS011;11380;50.822;15.790;2023-02-28T23:30:48;45.20;;;40.80;;
22425;SDS011;11380;50.822;15.790;2023-02-28T23:36:05;45.23;;;41.30;;
22425;SDS011;11380;50.822;15.790;2023-02-28T23:41:20;51.63;;;46.13;;
22425;SDS011;11380;50.822;15.790;2023-02-28T23:46:30;64.87;;;47.77;;
22425;SDS011;11380;50.822;15.790;2023-02-28T23:51:40;45.00;;;40.40;;
22425;SDS011;11380;50.822;15.790;2023-02-28T23:56:48;41.30;;;37.47;;
